LFRD/DNR METAR and TAF weather

Enter ICAO airport designator
Station Type Date Time Source
LFRD METAR 2022/12/04 12:00 UTC NOAA

LFRD 041200Z AUTO 09006KT 060V120 9999 OVC012 04/02 Q1012 TEMPO 4000 RADZ BKN009


Station Type Date Time Source
LFRD Decoded METAR 2022/12/04 12:00 UTC NOAA

Dinard, France (LFRD) 48-35N 002-04W 60M
Dec 04, 2022 - 07:00 AM EST / 2022.12.04 1200 UTC
Wind: from the E (090 degrees) at 7 MPH (6 KT) (direction variable):0
Visibility: greater than 7 mile(s):0
Sky conditions: overcast
Temperature: 39 F (4 C)
Dew Point: 35 F (2 C)
Relative Humidity: 86%
Pressure (altimeter): 29.88 in. Hg (1012 hPa)
ob: LFRD 041200Z AUTO 09006KT 060V120 9999 OVC012 04/02 Q1012 TEMPO 4000 RADZ BKN009
cycle: 12

Station Type Date Time Source
LFRD TAF 2022/12/04 12:21 UTC NOAA

TAF LFRD 041100Z 0412/0512 09008KT 7000 OVC015
TEMPO 0412/0421 BKN009 PROB40
TEMPO 0412/0414 4000 RADZ
BECMG 0418/0420 VRB05KT
TEMPO 0421/0511 3000 BR BKN004 PROB40
TEMPO 0500/0508 0800 FG OVC002
TEMPO 0511/0512 BKN009

Example: see airport list